createdAt,value
2019-04-21T00:01:49.020Z,14.27
2019-04-21T00:04:30.873Z,16.07
2019-04-21T00:07:08.721Z,15.13
2019-04-21T00:09:48.334Z,18.60
2019-04-21T00:12:15.249Z,17.50
2019-04-21T00:14:39.693Z,15.93
2019-04-21T00:17:06.031Z,16.67
2019-04-21T00:19:37.151Z,16.27
2019-04-21T00:22:19.277Z,16.30
2019-04-21T00:24:54.416Z,15.53
2019-04-21T00:27:28.320Z,15.63
2019-04-21T00:30:09.182Z,14.37
2019-04-21T00:32:28.180Z,14.23
2019-04-21T00:34:56.249Z,14.53
2019-04-21T00:37:31.920Z,13.77
2019-04-21T00:40:27.765Z,13.43
2019-04-21T00:42:43.642Z,14.33
2019-04-21T00:45:11.956Z,13.27
2019-04-21T00:47:45.918Z,13.20
2019-04-21T00:50:24.799Z,14.80
2019-04-21T00:53:03.053Z,13.70
2019-04-21T00:55:44.498Z,14.33
2019-04-21T00:58:17.622Z,12.70
2019-04-21T01:00:46.499Z,14.10
2019-04-21T01:03:14.790Z,15.53
2019-04-21T01:05:52.859Z,14.80
2019-04-21T01:08:21.730Z,14.27
2019-04-21T01:10:44.000Z,14.10
2019-04-21T01:13:27.753Z,15.10
2019-04-21T01:15:59.564Z,14.37
2019-04-21T01:18:26.195Z,15.23
2019-04-21T01:20:39.527Z,14.93
2019-04-21T01:23:10.561Z,14.00
2019-04-21T01:25:51.561Z,12.87
2019-04-21T01:28:29.025Z,14.77
2019-04-21T01:31:05.723Z,13.80
2019-04-21T01:33:38.348Z,12.60
2019-04-21T01:36:08.431Z,13.80
2019-04-21T01:38:48.643Z,14.10
2019-04-21T01:41:21.367Z,12.57
2019-04-21T01:43:45.864Z,13.43
2019-04-21T01:46:13.894Z,14.50
2019-04-21T01:48:42.810Z,14.07
2019-04-21T01:51:18.717Z,14.10
2019-04-21T01:54:03.553Z,13.67
2019-04-21T01:56:46.216Z,12.77
2019-04-21T01:59:04.890Z,14.73
2019-04-21T02:01:46.094Z,14.07
2019-04-21T02:04:24.178Z,12.80
2019-04-21T02:06:57.284Z,13.83
2019-04-21T02:09:27.397Z,14.80
2019-04-21T02:12:11.415Z,14.80
2019-04-21T02:14:41.246Z,13.57
2019-04-21T02:17:14.567Z,15.40
2019-04-21T02:19:39.048Z,14.63
2019-04-21T02:22:10.716Z,14.17
2019-04-21T02:27:20.200Z,14.33
2019-04-21T02:29:55.966Z,15.20
2019-04-21T02:32:42.112Z,14.23
2019-04-21T02:35:14.238Z,15.23
2019-04-21T02:37:51.149Z,15.10
2019-04-21T02:42:47.939Z,14.77
2019-04-21T02:45:17.153Z,15.07
2019-04-21T02:48:04.363Z,14.73
2019-04-21T02:55:24.987Z,15.47
2019-04-21T03:00:30.269Z,16.23
2019-04-21T03:03:14.035Z,15.23
2019-04-21T03:05:52.994Z,15.50
2019-04-21T03:08:32.166Z,15.87
2019-04-21T03:11:11.032Z,16.20
2019-04-21T03:13:29.152Z,15.60
2019-04-21T03:18:32.553Z,15.47
2019-04-21T03:21:16.456Z,16.07
2019-04-21T03:28:35.712Z,16.23
2019-04-21T03:34:15.205Z,18.27
2019-04-21T03:38:42.917Z,18.50
2019-04-21T03:41:26.171Z,19.53
2019-04-21T03:43:50.128Z,19.80
2019-04-21T03:46:41.678Z,18.80
2019-04-21T03:49:04.912Z,18.87
2019-04-21T03:51:27.345Z,22.77
2019-04-21T03:54:03.613Z,21.57
2019-04-21T03:56:53.584Z,18.10
2019-04-21T03:59:09.949Z,19.83
2019-04-21T04:04:35.517Z,18.10
2019-04-21T04:12:05.259Z,18.57
2019-04-21T04:14:45.875Z,17.73
2019-04-21T04:17:24.040Z,18.20
2019-04-21T04:19:44.699Z,18.43
2019-04-21T04:22:19.448Z,18.50
2019-04-21T04:24:57.921Z,19.00
2019-04-21T04:27:53.862Z,18.10
2019-04-21T04:29:59.029Z,17.03
2019-04-21T04:32:32.780Z,17.53
2019-04-21T04:35:03.397Z,17.30
2019-04-21T04:40:30.853Z,17.17
2019-04-21T04:45:22.708Z,15.17
2019-04-21T04:47:47.664Z,15.80
2019-04-21T04:50:10.237Z,17.27
2019-04-21T04:52:49.045Z,16.97
2019-04-21T04:55:18.536Z,16.97
2019-04-21T05:02:56.370Z,16.50
2019-04-21T05:05:28.407Z,16.17
2019-04-21T05:08:28.843Z,16.77
2019-04-21T05:10:38.484Z,15.90
2019-04-21T05:13:06.582Z,17.87
2019-04-21T05:15:32.191Z,17.20
2019-04-21T05:18:04.989Z,18.50
2019-04-21T05:20:41.807Z,16.17
2019-04-21T05:23:05.889Z,15.77
2019-04-21T05:25:33.837Z,18.20
2019-04-21T05:28:05.371Z,21.67
2019-04-21T05:30:52.847Z,20.50
2019-04-21T05:33:38.383Z,18.43
2019-04-21T05:36:12.949Z,17.07
2019-04-21T05:38:42.323Z,16.43
2019-04-21T05:41:13.053Z,16.53
2019-04-21T05:43:52.676Z,18.07
2019-04-21T05:46:25.288Z,18.23
2019-04-21T05:49:10.566Z,17.00
2019-04-21T05:51:39.611Z,14.83
2019-04-21T05:54:22.867Z,16.83
2019-04-21T05:56:51.032Z,13.83
2019-04-21T05:59:21.734Z,14.77
2019-04-21T06:02:02.098Z,14.43
2019-04-21T06:04:38.464Z,15.13
2019-04-21T06:07:04.784Z,15.40
2019-04-21T06:09:40.968Z,20.67
2019-04-21T06:12:05.898Z,16.40
2019-04-21T06:14:44.990Z,14.30
2019-04-21T06:17:17.502Z,15.53
2019-04-21T06:19:52.670Z,17.37
2019-04-21T06:22:13.819Z,15.20
2019-04-21T06:25:15.587Z,13.67
2019-04-21T06:27:27.904Z,12.93
2019-04-21T06:29:54.695Z,14.70
2019-04-21T06:32:38.492Z,37.17
2019-04-21T06:40:19.927Z,11.83
2019-04-21T06:42:48.685Z,10.23
2019-04-21T06:45:12.279Z,10.33
2019-04-21T06:47:47.315Z,9.47
2019-04-21T06:50:14.574Z,8.00
2019-04-21T06:55:24.196Z,8.80
2019-04-21T06:57:56.045Z,19.47
2019-04-21T07:00:18.476Z,10.00
2019-04-21T07:03:01.246Z,8.57
2019-04-21T07:05:30.719Z,7.67
2019-04-21T07:08:14.854Z,8.03
2019-04-21T07:10:48.781Z,11.15
2019-04-21T07:12:59.229Z,11.53
2019-04-21T07:15:39.108Z,32.38
2019-04-21T07:18:04.455Z,18.00
2019-04-21T07:20:37.990Z,10.40
2019-04-21T07:23:16.046Z,9.75
2019-04-21T07:25:49.390Z,6.40
2019-04-21T07:28:22.082Z,12.73
2019-04-21T07:30:54.629Z,5.83
2019-04-21T07:33:47.715Z,6.30
2019-04-21T07:35:51.516Z,6.58
2019-04-21T07:38:25.275Z,6.72
2019-04-21T07:40:48.382Z,12.55
2019-04-21T07:43:25.951Z,14.40
2019-04-21T07:45:52.453Z,8.63
2019-04-21T07:48:38.654Z,5.75
2019-04-21T07:51:17.234Z,6.25
2019-04-21T07:53:55.751Z,6.00
2019-04-21T07:56:07.289Z,10.28
2019-04-21T07:58:58.777Z,14.03
2019-04-21T08:01:30.742Z,5.00
2019-04-21T08:03:59.433Z,5.23
2019-04-21T08:06:33.425Z,4.62
2019-04-21T08:09:00.959Z,4.83
2019-04-21T08:11:31.451Z,7.12
2019-04-21T08:14:24.180Z,4.65
2019-04-21T08:16:40.060Z,4.85
2019-04-21T08:19:15.575Z,3.80
2019-04-21T08:21:40.495Z,4.12
2019-04-21T08:24:14.499Z,4.03
2019-04-21T08:26:55.747Z,4.20
2019-04-21T08:29:25.575Z,3.87
2019-04-21T08:32:05.853Z,3.80
2019-04-21T08:34:29.909Z,4.10
2019-04-21T08:36:58.211Z,4.60
2019-04-21T08:39:42.396Z,4.95
2019-04-21T08:42:03.316Z,4.28
2019-04-21T08:47:07.818Z,4.87
2019-04-21T08:49:44.273Z,3.95
2019-04-21T08:52:21.302Z,5.92
2019-04-21T08:54:47.058Z,4.20
2019-04-21T08:57:21.499Z,4.42
2019-04-21T09:00:01.495Z,4.50
2019-04-21T09:02:43.193Z,4.60
2019-04-21T09:06:07.687Z,5.08
2019-04-21T09:08:39.386Z,4.55
2019-04-21T09:11:12.824Z,5.22
2019-04-21T09:13:42.816Z,4.58
2019-04-21T09:16:08.490Z,4.33
2019-04-21T09:18:41.934Z,4.80
2019-04-21T09:21:21.900Z,4.72
2019-04-21T09:23:52.297Z,5.30
2019-04-21T09:26:28.323Z,5.20
2019-04-21T09:28:49.461Z,4.28
2019-04-21T09:31:10.713Z,4.45
2019-04-21T09:33:47.133Z,4.12
2019-04-21T09:36:18.123Z,4.70
2019-04-21T09:38:57.662Z,4.22
2019-04-21T09:41:22.127Z,4.58
2019-04-21T09:43:53.712Z,4.37
2019-04-21T09:46:23.356Z,3.85
2019-04-21T09:49:00.894Z,4.53
2019-04-21T09:51:28.099Z,4.55
2019-04-21T09:54:07.897Z,4.03
2019-04-21T09:56:40.717Z,4.45
2019-04-21T09:59:09.174Z,4.70
2019-04-21T10:01:49.051Z,4.58
2019-04-21T10:04:07.673Z,4.72
2019-04-21T10:06:39.215Z,4.95
2019-04-21T10:09:14.451Z,5.45
2019-04-21T10:11:43.746Z,4.90
2019-04-21T10:14:14.304Z,5.20
2019-04-21T10:16:58.101Z,5.15
2019-04-21T10:19:27.525Z,5.05
2019-04-21T10:21:59.553Z,4.80
2019-04-21T10:24:30.639Z,5.78
2019-04-21T10:27:03.726Z,5.00
2019-04-21T10:29:34.833Z,5.45
2019-04-21T10:32:05.847Z,6.15
2019-04-21T10:34:37.157Z,6.60
2019-04-21T10:37:08.994Z,5.50
2019-04-21T10:39:40.004Z,4.87
2019-04-21T10:42:11.287Z,4.85
2019-04-21T10:44:43.064Z,7.22
2019-04-21T10:47:14.462Z,5.60
2019-04-21T10:49:45.050Z,4.40
2019-04-21T10:52:28.949Z,4.30
2019-04-21T10:55:23.091Z,3.75
2019-04-21T10:57:32.662Z,3.62
2019-04-21T11:00:04.477Z,3.35
2019-04-21T11:02:37.338Z,3.65
2019-04-21T11:05:09.099Z,3.30
2019-04-21T11:08:04.876Z,2.72
2019-04-21T11:10:22.614Z,3.12
2019-04-21T11:12:53.007Z,5.87
2019-04-21T11:15:23.620Z,2.90
2019-04-21T11:17:55.562Z,3.10
2019-04-21T11:20:26.905Z,3.00
2019-04-21T11:22:57.669Z,3.30
2019-04-21T11:25:28.247Z,2.85
2019-04-21T11:27:58.790Z,3.02
2019-04-21T11:30:29.773Z,3.12
2019-04-21T11:33:01.426Z,2.92
2019-04-21T11:35:32.972Z,3.05
2019-04-21T11:38:18.972Z,2.85
2019-04-21T11:40:47.489Z,2.60
2019-04-21T11:43:18.131Z,3.40
2019-04-21T11:45:48.583Z,2.67
2019-04-21T11:48:28.723Z,3.10
2019-04-21T11:50:59.414Z,2.92
2019-04-21T11:53:30.768Z,2.53
2019-04-21T11:56:01.238Z,2.10
2019-04-21T11:58:32.202Z,2.00
2019-04-21T12:01:05.482Z,2.37
2019-04-21T12:03:36.067Z,2.52
2019-04-21T12:06:06.734Z,1.87
2019-04-21T12:08:42.301Z,1.92
2019-04-21T12:11:09.782Z,2.00
2019-04-21T12:13:40.485Z,2.08
2019-04-21T12:16:12.873Z,1.80
2019-04-21T12:18:45.166Z,2.12
2019-04-21T12:21:15.888Z,2.02
2019-04-21T12:23:48.138Z,2.15
2019-04-21T12:26:20.028Z,1.90
2019-04-21T12:28:52.165Z,2.72
2019-04-21T12:31:39.399Z,2.17
2019-04-21T12:34:12.109Z,2.80
2019-04-21T12:36:43.730Z,2.00
2019-04-21T12:39:14.898Z,2.42
2019-04-21T12:41:46.427Z,4.03
2019-04-21T12:44:18.381Z,2.45
2019-04-21T12:46:49.812Z,2.47
2019-04-21T12:49:20.323Z,2.25
2019-04-21T12:51:51.522Z,2.40
2019-04-21T12:54:23.831Z,3.58
2019-04-21T12:56:55.725Z,2.85
2019-04-21T12:59:28.124Z,2.33
2019-04-21T13:01:59.088Z,2.42
2019-04-21T13:04:29.725Z,2.60
2019-04-21T13:07:01.408Z,2.55
2019-04-21T13:09:32.521Z,2.70
2019-04-21T13:12:04.885Z,2.52
2019-04-21T13:14:35.828Z,2.62
2019-04-21T13:17:07.570Z,3.00
2019-04-21T13:19:41.103Z,2.40
2019-04-21T13:22:12.208Z,2.47
2019-04-21T13:24:44.074Z,2.77
2019-04-21T13:27:15.615Z,2.80
2019-04-21T13:29:48.276Z,2.45
2019-04-21T13:32:20.360Z,2.62
2019-04-21T13:34:51.067Z,2.27
2019-04-21T13:37:21.579Z,2.63
2019-04-21T13:40:20.651Z,2.80
2019-04-21T13:42:40.726Z,2.60
2019-04-21T13:45:10.057Z,2.87
2019-04-21T13:47:40.826Z,2.20
2019-04-21T13:50:13.216Z,2.37
2019-04-21T13:52:44.874Z,2.30
2019-04-21T13:55:15.885Z,2.50
2019-04-21T13:57:46.501Z,2.43
2019-04-21T14:00:19.327Z,2.33
2019-04-21T14:02:49.909Z,2.30
2019-04-21T14:05:21.185Z,2.47
2019-04-21T14:07:52.752Z,2.47
2019-04-21T14:10:23.883Z,2.57
2019-04-21T14:12:54.579Z,3.00
2019-04-21T14:15:26.266Z,3.10
2019-04-21T14:17:56.932Z,3.13
2019-04-21T14:20:29.104Z,2.60
2019-04-21T14:23:13.479Z,2.30
2019-04-21T14:25:32.110Z,2.53
2019-04-21T14:28:03.948Z,2.23
2019-04-21T14:30:36.528Z,2.97
2019-04-21T14:33:10.042Z,2.60
2019-04-21T14:35:43.294Z,2.23
2019-04-21T14:38:14.681Z,2.17
2019-04-21T14:40:46.157Z,1.90
2019-04-21T14:43:16.727Z,2.40
2019-04-21T14:45:48.841Z,2.30
2019-04-21T14:48:30.043Z,2.30
2019-04-21T14:51:11.271Z,2.70
2019-04-21T14:53:49.850Z,2.57
2019-04-21T14:56:21.518Z,2.63
2019-04-21T14:58:55.591Z,2.67
2019-04-21T15:01:24.521Z,2.30
2019-04-21T15:03:55.519Z,2.40
2019-04-21T15:06:27.132Z,2.37
2019-04-21T15:08:57.967Z,2.03
2019-04-21T15:11:29.769Z,2.60
2019-04-21T15:14:01.928Z,2.40
2019-04-21T15:16:33.192Z,1.90
2019-04-21T15:19:04.414Z,2.20
2019-04-21T15:21:35.400Z,2.33
2019-04-21T15:24:06.535Z,2.00
2019-04-21T15:26:40.114Z,2.23
2019-04-21T15:29:10.900Z,2.27
2019-04-21T15:31:44.589Z,1.90
2019-04-21T15:34:17.039Z,2.40
2019-04-21T15:36:48.205Z,2.30
2019-04-21T15:39:21.454Z,2.07
2019-04-21T15:41:52.610Z,2.10
2019-04-21T15:44:23.040Z,2.23
2019-04-21T15:46:53.772Z,2.30
2019-04-21T15:49:28.452Z,1.87
2019-04-21T15:51:58.313Z,2.20
2019-04-21T15:54:28.953Z,2.30
2019-04-21T15:57:01.064Z,2.00
2019-04-21T15:59:52.813Z,1.80
2019-04-21T16:02:40.541Z,2.40
2019-04-21T16:05:13.109Z,2.03
2019-04-21T16:07:44.446Z,1.97
2019-04-21T16:10:29.678Z,3.53
2019-04-21T16:12:47.572Z,4.80
2019-04-21T16:15:18.830Z,2.30
2019-04-21T16:17:49.398Z,2.23
2019-04-21T16:20:21.742Z,4.30
2019-04-21T16:22:52.866Z,2.00
2019-04-21T16:25:23.326Z,1.97
2019-04-21T16:27:55.125Z,2.10
2019-04-21T16:30:25.944Z,1.93
2019-04-21T16:32:56.469Z,2.67
2019-04-21T16:35:29.465Z,1.77
2019-04-21T16:38:06.151Z,2.87
2019-04-21T16:40:48.383Z,4.97
2019-04-21T16:43:10.115Z,3.70
2019-04-21T16:45:41.133Z,6.87
2019-04-21T16:48:12.973Z,6.87
2019-04-21T16:50:46.047Z,4.13
2019-04-21T16:53:18.127Z,5.53
2019-04-21T16:56:00.535Z,6.70
2019-04-21T16:58:36.736Z,4.30
2019-04-21T17:01:15.935Z,4.67
2019-04-21T17:03:44.391Z,4.60
2019-04-21T17:06:17.264Z,4.07
2019-04-21T17:08:50.588Z,4.73
2019-04-21T17:11:27.370Z,4.10
2019-04-21T17:13:54.349Z,4.23
2019-04-21T17:17:02.929Z,4.20
2019-04-21T17:19:09.477Z,4.83
2019-04-21T17:21:32.125Z,3.87
2019-04-21T17:24:04.225Z,4.80
2019-04-21T17:26:39.014Z,3.50
2019-04-21T17:29:08.586Z,3.10
2019-04-21T17:31:39.255Z,3.83
2019-04-21T17:34:19.507Z,4.77
2019-04-21T17:36:47.070Z,5.37
2019-04-21T17:39:18.760Z,4.67
2019-04-21T17:42:04.083Z,4.77
2019-04-21T17:44:21.480Z,3.43
2019-04-21T17:46:59.465Z,4.40
2019-04-21T17:49:25.812Z,4.10
2019-04-21T17:52:19.459Z,3.73
2019-04-21T17:54:52.686Z,4.23
2019-04-21T17:57:45.523Z,3.90
2019-04-21T18:00:13.783Z,4.50
2019-04-21T18:02:48.904Z,3.80
2019-04-21T18:05:21.063Z,5.20
2019-04-21T18:07:50.498Z,5.67
2019-04-21T18:10:17.493Z,4.60
2019-04-21T18:12:45.802Z,4.23
2019-04-21T18:15:26.456Z,7.67
2019-04-21T18:17:40.492Z,9.83
2019-04-21T18:20:13.862Z,7.97
2019-04-21T18:23:09.567Z,5.60
2019-04-21T18:25:44.893Z,4.33
2019-04-21T18:28:08.330Z,4.33
2019-04-21T18:30:58.343Z,3.47
2019-04-21T18:33:33.823Z,3.50
2019-04-21T18:36:04.661Z,3.27
2019-04-21T18:39:10.199Z,2.83
2019-04-21T18:41:30.625Z,3.30
2019-04-21T18:44:28.383Z,3.57
2019-04-21T18:47:16.649Z,4.00
2019-04-21T18:49:44.087Z,5.53
2019-04-21T18:52:22.417Z,6.23
2019-04-21T18:55:02.944Z,6.60
2019-04-21T18:57:30.917Z,7.93
2019-04-21T18:59:53.350Z,10.13
2019-04-21T19:02:24.992Z,9.90
2019-04-21T19:05:04.387Z,16.17
2019-04-21T19:07:48.007Z,11.27
2019-04-21T19:10:33.926Z,7.20
2019-04-21T19:13:20.328Z,6.03
2019-04-21T19:15:20.036Z,5.27
2019-04-21T19:18:27.797Z,5.10
2019-04-21T19:20:29.569Z,5.07
2019-04-21T19:22:57.202Z,4.70
2019-04-21T19:25:31.444Z,4.73
2019-04-21T19:28:06.408Z,4.77
2019-04-21T19:30:50.821Z,4.63
2019-04-21T19:33:15.967Z,5.23
2019-04-21T19:35:32.486Z,5.73
2019-04-21T19:38:08.604Z,5.97
2019-04-21T19:40:50.892Z,5.70
2019-04-21T19:43:33.041Z,5.60
2019-04-21T19:45:54.096Z,6.23
2019-04-21T19:48:36.654Z,6.10
2019-04-21T19:51:02.715Z,5.80
2019-04-21T19:53:29.863Z,6.10
2019-04-21T19:55:50.176Z,5.30
2019-04-21T19:58:31.211Z,5.33
2019-04-21T20:00:54.653Z,5.93
2019-04-21T20:03:26.308Z,5.77
2019-04-21T20:06:05.974Z,5.50
2019-04-21T20:08:43.216Z,5.20
2019-04-21T20:11:19.330Z,5.97
2019-04-21T20:14:13.869Z,6.10
2019-04-21T20:16:27.391Z,6.80
2019-04-21T20:18:44.127Z,6.70
2019-04-21T20:21:10.103Z,6.93
2019-04-21T20:23:43.283Z,7.40
2019-04-21T20:26:15.528Z,8.10
2019-04-21T20:28:58.817Z,7.30
2019-04-21T20:31:36.477Z,7.23
2019-04-21T20:34:12.623Z,7.63
2019-04-21T20:36:51.416Z,8.07
2019-04-21T20:39:05.980Z,9.50
2019-04-21T20:41:40.916Z,12.23
2019-04-21T20:44:21.234Z,11.23
2019-04-21T20:46:53.126Z,17.93
2019-04-21T20:49:19.092Z,13.53
2019-04-21T20:52:04.190Z,17.93
2019-04-21T20:54:30.041Z,15.33
2019-04-21T20:57:01.575Z,18.83
2019-04-21T20:59:29.461Z,13.17
2019-04-21T21:02:05.612Z,12.80
2019-04-21T21:04:30.090Z,12.93
2019-04-21T21:07:25.569Z,12.50
2019-04-21T21:09:42.965Z,12.57
2019-04-21T21:12:22.636Z,12.73
2019-04-21T21:14:42.581Z,14.23
2019-04-21T21:17:37.880Z,14.43
2019-04-21T21:19:53.635Z,13.83
2019-04-21T21:22:14.495Z,13.50
2019-04-21T21:24:53.356Z,13.60
2019-04-21T21:27:25.501Z,12.53
2019-04-21T21:29:56.137Z,13.53
2019-04-21T21:32:34.236Z,13.60
2019-04-21T21:35:06.087Z,13.47
2019-04-21T21:37:38.827Z,13.30
2019-04-21T21:40:11.176Z,14.03
2019-04-21T21:42:27.856Z,13.17
2019-04-21T21:45:02.850Z,12.77
2019-04-21T21:47:49.936Z,13.00
2019-04-21T21:50:11.564Z,13.43
2019-04-21T21:52:46.200Z,12.70
2019-04-21T21:55:08.043Z,12.33
2019-04-21T21:57:44.553Z,12.97
2019-04-21T22:00:15.361Z,14.27
2019-04-21T22:02:52.719Z,14.13
2019-04-21T22:05:26.092Z,13.23
2019-04-21T22:07:56.052Z,14.43
2019-04-21T22:10:27.267Z,13.67
2019-04-21T22:13:06.435Z,14.03
2019-04-21T22:15:33.673Z,14.77
2019-04-21T22:18:33.238Z,14.60
2019-04-21T22:20:53.792Z,13.90
2019-04-21T22:23:13.370Z,14.43
2019-04-21T22:25:41.817Z,14.90
2019-04-21T22:28:11.720Z,14.73
2019-04-21T22:30:46.447Z,14.33
2019-04-21T22:33:17.743Z,14.30
2019-04-21T22:35:54.276Z,15.57
2019-04-21T22:38:31.069Z,15.03
2019-04-21T22:41:08.842Z,14.80
2019-04-21T22:43:30.522Z,14.87
2019-04-21T22:45:55.749Z,15.13
2019-04-21T22:48:28.967Z,14.90
2019-04-21T22:51:00.478Z,16.10
2019-04-21T22:53:36.250Z,15.07
2019-04-21T22:56:14.158Z,15.33
2019-04-21T22:58:39.301Z,17.53
2019-04-21T23:01:09.651Z,17.40
2019-04-21T23:03:49.230Z,16.80
2019-04-21T23:06:19.491Z,16.00
2019-04-21T23:08:47.638Z,15.43
2019-04-21T23:11:19.612Z,15.30
2019-04-21T23:13:55.671Z,16.90
2019-04-21T23:16:28.028Z,16.77
2019-04-21T23:19:15.922Z,16.37
2019-04-21T23:21:45.439Z,16.17
2019-04-21T23:24:14.895Z,16.40
2019-04-21T23:26:47.267Z,17.67
2019-04-21T23:29:33.011Z,16.83
2019-04-21T23:31:57.272Z,16.53
2019-04-21T23:34:13.462Z,16.63
2019-04-21T23:36:48.279Z,16.00
2019-04-21T23:39:17.019Z,17.23
2019-04-21T23:41:47.930Z,16.00
2019-04-21T23:44:19.034Z,16.73
2019-04-21T23:46:54.699Z,16.30
2019-04-21T23:49:34.298Z,16.83
2019-04-21T23:52:00.279Z,17.23
2019-04-21T23:54:25.229Z,16.47
2019-04-21T23:56:55.943Z,16.20
2019-04-21T23:59:32.391Z,16.23
